Sun City, South Carolina
Current Conditions -  °F | °C
As of 12:55 AM on Sunday 23 Nov 2014 (Local Time) from KHXD Reporting Station
Light Rain Light Rain  
Wind Chill: 59°   Ceiling: Unl
Heat Index: 59°   Visibility: 5mi
Dew Point: 57°   Wind: 6mph
Humidity: 94%   Direction: 10°N
Pressure: 30.22"   Gusts: NA
Location:  32.3283°N, 80.8483°W
Report Text: KHXD 230555Z AUTO 01005KT 5SM -RA CLR 15/14 A3022 RMK AO2 P0000
Loading
Personal Weather Stations






























Interactive Weather Map New forecast layout! Learn more

10-Day Weather Forecast

Advertisements
Track Severe Weather on mobile